Portada
METAR-TAF:

METAR-TAF

Aeroports :

Pskov, Rússia

latitud: 57-47-06N, longitud: 028-23-54E, altitud: 47 m

Observació

L'informe es va fer fa 29 minuts, a les 08:30 UTC
Vent 6 kt del Nord, variant entre Nord-Oest i Est/Nord-Est
Temperatura 25°C
Humitat 44%
Pressió 1013 hPa
Núvols disperses a una alçada de 4000 ft

METAR: ULOO 230830Z 01003MPS 320V070 P5000 SCT040 25/12 Q1013 R01/090070 NOSIG RMK QFE756

Hora: 11:59 (08:59 UTC)

Pronòstic

L'informe es va fer fa 1 hora i 4 minuts, a les 07:55 UTC
Pronòstic vàlid del 23 a les 09 UTC al 23 a les 18 UTC
Vent 4 kt del Nord/Nord-Oest
Visibilitat 10 km o més
Núvols disperses a una alçada de 3000 ft
Probabilitat 40% :
Temporalment
l' 23 a les 11 UTC al 23 a les 16 UTC
Visibilitat: 3100 m
Cel ennuvolat a una alçada de 1100 ft
Cel ennuvolat a una alçada de 2000 ft, Cumulonimbus.
tempesta, pluja

TAF: ULOO 230755Z 2309/2318 34002MPS 9999 SCT030 PROB40 TEMPO 2311/2316 3100 -TSRA BKN011 BKN020CB

Observacions i pronòstics meteorològics de més de 4000 aeroports (METAR i TAF).

Les estacions disponibles són els punts grocs i vermells al mapa.

Posi el ratolí al punt desitjat per veure el nom de l'estació.

Feu clic per veure les observacions i els pronòstics meteorològics.

Per canviar el mapa: feu clic els botons verds amb una creu de color negre per apropar; al botó verd amb un guió per allunyar la imatge; o en les fletxes verdes per a mapes adjacents.


METAR-TAF: